createdAt,value
2022-07-26T00:01:45.761Z,8.40
2022-07-26T00:04:12.533Z,8.57
2022-07-26T00:06:39.395Z,7.05
2022-07-26T00:09:11.149Z,10.73
2022-07-26T00:11:38.172Z,8.32
2022-07-26T00:14:06.817Z,10.05
2022-07-26T00:16:36.236Z,9.27
2022-07-26T00:19:04.645Z,6.47
2022-07-26T00:21:31.791Z,7.28
2022-07-26T00:24:00.584Z,6.88
2022-07-26T00:26:27.113Z,9.85
2022-07-26T00:28:53.667Z,8.82
2022-07-26T00:31:20.413Z,7.18
2022-07-26T00:33:49.262Z,10.90
2022-07-26T00:36:15.942Z,8.68
2022-07-26T00:38:42.649Z,13.05
2022-07-26T00:41:09.415Z,10.48
2022-07-26T00:43:38.282Z,11.55
2022-07-26T00:46:05.063Z,13.40
2022-07-26T00:48:33.961Z,9.02
2022-07-26T00:51:00.672Z,12.75
2022-07-26T00:53:27.337Z,6.65
2022-07-26T00:55:53.964Z,13.75
2022-07-26T00:58:20.549Z,11.70
2022-07-26T01:00:47.308Z,11.50
2022-07-26T01:03:13.953Z,10.45
2022-07-26T01:05:43.010Z,15.30
2022-07-26T01:08:09.722Z,9.48
2022-07-26T01:10:40.031Z,10.70
2022-07-26T01:13:06.693Z,10.73
2022-07-26T01:15:35.659Z,9.48
2022-07-26T01:18:02.229Z,12.32
2022-07-26T01:20:28.890Z,12.07
2022-07-26T01:22:55.482Z,11.35
2022-07-26T01:25:33.090Z,11.13
2022-07-26T01:28:19.759Z,11.55
2022-07-26T01:30:47.876Z,8.80
2022-07-26T01:33:14.498Z,9.43
2022-07-26T01:35:41.085Z,17.65
2022-07-26T01:38:10.061Z,13.80
2022-07-26T01:40:36.663Z,12.02
2022-07-26T01:43:03.640Z,10.00
2022-07-26T01:45:30.407Z,15.60
2022-07-26T01:47:57.042Z,7.18
2022-07-26T01:50:23.634Z,10.77
2022-07-26T01:52:50.193Z,7.47
2022-07-26T01:55:16.864Z,9.10
2022-07-26T01:57:45.831Z,8.50
2022-07-26T02:00:12.996Z,10.35
2022-07-26T02:02:39.664Z,13.23
2022-07-26T02:05:09.109Z,13.55
2022-07-26T02:07:44.578Z,12.73
2022-07-26T02:10:12.879Z,6.70
2022-07-26T02:12:41.058Z,11.00
2022-07-26T02:15:08.939Z,9.80
2022-07-26T02:17:35.622Z,15.57
2022-07-26T02:20:02.323Z,13.30
2022-07-26T02:22:31.215Z,13.07
2022-07-26T02:25:02.980Z,10.48
2022-07-26T02:27:31.464Z,11.88
2022-07-26T02:30:00.574Z,17.25
2022-07-26T02:32:27.121Z,14.13
2022-07-26T02:34:55.942Z,15.00
2022-07-26T02:37:22.496Z,20.17
2022-07-26T02:39:49.092Z,11.90
2022-07-26T02:42:17.905Z,12.93
2022-07-26T02:44:44.833Z,9.43
2022-07-26T02:47:12.713Z,16.75
2022-07-26T02:49:39.413Z,12.48
2022-07-26T02:52:06.034Z,11.75
2022-07-26T02:54:32.686Z,12.10
2022-07-26T02:57:01.732Z,14.60
2022-07-26T02:59:28.420Z,13.82
2022-07-26T03:01:55.160Z,12.65
2022-07-26T03:04:21.884Z,13.63
2022-07-26T03:06:48.441Z,13.07
2022-07-26T03:09:17.225Z,12.10
2022-07-26T03:11:43.790Z,15.55
2022-07-26T03:14:10.758Z,13.88
2022-07-26T03:16:38.916Z,9.07
2022-07-26T03:19:05.522Z,12.93
2022-07-26T03:21:32.250Z,14.82
2022-07-26T03:23:58.844Z,13.40
2022-07-26T03:26:29.297Z,12.90
2022-07-26T03:28:56.298Z,17.08
2022-07-26T03:31:23.611Z,10.98
2022-07-26T03:33:50.313Z,18.08
2022-07-26T03:36:19.238Z,12.40
2022-07-26T03:38:45.805Z,18.42
2022-07-26T03:41:13.641Z,16.58
2022-07-26T03:43:40.684Z,17.45
2022-07-26T03:46:09.466Z,14.88
2022-07-26T03:48:36.161Z,13.60
2022-07-26T03:51:05.122Z,8.73
2022-07-26T03:53:31.719Z,11.85
2022-07-26T03:56:17.650Z,15.93
2022-07-26T03:58:44.233Z,14.68
2022-07-26T04:01:13.275Z,14.20
2022-07-26T04:03:42.178Z,13.98
2022-07-26T04:06:16.595Z,12.98
2022-07-26T04:08:46.778Z,11.32
2022-07-26T04:11:13.387Z,16.85
2022-07-26T04:13:40.542Z,15.15
2022-07-26T04:16:07.391Z,12.52
2022-07-26T04:18:34.029Z,12.45
2022-07-26T04:21:00.811Z,15.43
2022-07-26T04:23:27.544Z,13.75
2022-07-26T04:25:54.236Z,14.13
2022-07-26T04:28:23.284Z,14.43
2022-07-26T04:30:52.187Z,12.98
2022-07-26T04:33:18.860Z,12.93
2022-07-26T04:35:47.642Z,12.48
2022-07-26T04:38:14.639Z,15.85
2022-07-26T04:40:43.675Z,14.80
2022-07-26T04:43:15.350Z,12.43
2022-07-26T04:45:43.620Z,12.65
2022-07-26T04:48:10.345Z,12.13
2022-07-26T04:50:39.409Z,8.93
2022-07-26T04:53:06.044Z,15.68
2022-07-26T04:55:32.777Z,15.80
2022-07-26T04:58:03.870Z,17.33
2022-07-26T05:00:30.475Z,11.43
2022-07-26T05:02:59.178Z,12.27
2022-07-26T05:05:31.036Z,10.50
2022-07-26T05:07:59.756Z,9.98
2022-07-26T05:10:32.734Z,13.32
2022-07-26T05:12:59.482Z,10.45
2022-07-26T05:15:33.008Z,9.32
2022-07-26T05:18:10.283Z,10.75
2022-07-26T05:20:39.321Z,9.75
2022-07-26T05:23:08.746Z,10.88
2022-07-26T05:25:35.559Z,7.32
2022-07-26T05:28:04.622Z,7.28
2022-07-26T05:30:33.701Z,8.85
2022-07-26T05:33:00.364Z,6.50
2022-07-26T05:35:27.080Z,8.85
2022-07-26T05:37:53.713Z,7.25
2022-07-26T05:40:20.268Z,8.35
2022-07-26T05:42:47.237Z,12.05
2022-07-26T05:45:16.412Z,9.82
2022-07-26T05:47:43.029Z,12.77
2022-07-26T05:50:10.214Z,11.57
2022-07-26T05:52:36.849Z,9.73
2022-07-26T05:55:03.775Z,12.85
2022-07-26T05:57:30.810Z,8.90
2022-07-26T05:59:57.639Z,8.52
2022-07-26T06:02:24.339Z,7.50
2022-07-26T06:04:51.017Z,7.30
2022-07-26T06:07:17.617Z,7.07
2022-07-26T06:09:44.425Z,9.90
2022-07-26T06:12:11.028Z,13.00
2022-07-26T06:14:37.615Z,12.35
2022-07-26T06:17:04.744Z,6.63
2022-07-26T06:19:31.900Z,10.55
2022-07-26T06:22:00.244Z,6.78
2022-07-26T06:24:29.868Z,6.63
2022-07-26T06:27:04.957Z,6.70
2022-07-26T06:29:34.542Z,6.63
2022-07-26T06:32:01.422Z,7.82
2022-07-26T06:34:28.625Z,9.05
2022-07-26T06:36:57.188Z,8.48
2022-07-26T06:39:25.683Z,7.00
2022-07-26T06:41:57.467Z,5.85
2022-07-26T06:44:24.654Z,7.20
2022-07-26T06:46:52.077Z,8.00
2022-07-26T06:49:23.437Z,7.75
2022-07-26T06:51:53.082Z,6.82
2022-07-26T06:54:22.615Z,6.32
2022-07-26T06:56:56.887Z,6.57
2022-07-26T06:59:25.647Z,5.35
2022-07-26T07:01:59.305Z,6.65
2022-07-26T07:04:34.326Z,10.07
2022-07-26T07:07:10.738Z,6.85
2022-07-26T07:09:40.494Z,6.90
2022-07-26T07:12:10.105Z,9.00
2022-07-26T07:14:37.500Z,8.25
2022-07-26T07:17:10.372Z,9.85
2022-07-26T07:19:41.937Z,6.10
2022-07-26T07:22:12.019Z,11.13
2022-07-26T07:24:42.613Z,6.30
2022-07-26T07:27:10.610Z,7.63
2022-07-26T07:29:37.631Z,5.88
2022-07-26T07:32:07.878Z,5.35
2022-07-26T07:34:42.692Z,1.92
2022-07-26T07:37:10.586Z,1.83
2022-07-26T07:39:41.000Z,4.30
2022-07-26T07:42:08.081Z,3.53
2022-07-26T07:44:34.730Z,5.50
2022-07-26T07:47:01.904Z,0.88
2022-07-26T07:49:28.659Z,1.15
2022-07-26T07:51:55.807Z,0.80
2022-07-26T07:54:22.443Z,2.63
2022-07-26T07:56:49.318Z,1.85
2022-07-26T07:59:18.996Z,1.85
2022-07-26T08:01:50.060Z,2.38
2022-07-26T08:04:17.007Z,1.05
2022-07-26T08:06:50.269Z,2.45
2022-07-26T08:09:18.854Z,2.08
2022-07-26T08:11:45.874Z,1.42
2022-07-26T08:14:20.123Z,1.35
2022-07-26T08:16:47.057Z,5.65
2022-07-26T08:19:14.501Z,2.22
2022-07-26T08:21:42.972Z,1.73
2022-07-26T08:24:10.861Z,4.28
2022-07-26T08:26:38.350Z,2.03
2022-07-26T08:29:05.283Z,3.75
2022-07-26T08:31:32.091Z,2.55
2022-07-26T08:33:58.814Z,2.95
2022-07-26T08:36:31.822Z,3.00
2022-07-26T08:39:01.839Z,2.25
2022-07-26T08:41:29.198Z,3.75
2022-07-26T08:44:06.508Z,5.68
2022-07-26T08:46:39.784Z,3.13
2022-07-26T08:49:08.645Z,4.30
2022-07-26T08:51:39.679Z,4.82
2022-07-26T08:54:06.997Z,3.65
2022-07-26T08:56:40.633Z,3.25
2022-07-26T08:59:21.415Z,2.85
2022-07-26T09:01:52.018Z,8.52
2022-07-26T09:04:31.834Z,2.53
2022-07-26T09:07:13.352Z,5.10
2022-07-26T09:09:58.382Z,4.47
2022-07-26T09:12:26.088Z,2.83
2022-07-26T09:14:53.779Z,2.72
2022-07-26T09:17:22.166Z,1.92
2022-07-26T09:20:09.799Z,4.97
2022-07-26T09:22:41.257Z,2.88
2022-07-26T09:25:21.622Z,2.40
2022-07-26T09:27:48.254Z,5.88
2022-07-26T09:30:16.613Z,2.78
2022-07-26T09:33:13.797Z,2.83
2022-07-26T09:35:52.275Z,3.53
2022-07-26T09:38:19.882Z,1.52
2022-07-26T09:40:50.883Z,1.60
2022-07-26T09:43:24.025Z,1.63
2022-07-26T09:46:07.363Z,1.77
2022-07-26T09:49:09.428Z,3.33
2022-07-26T09:51:42.005Z,2.88
2022-07-26T09:54:11.012Z,4.85
2022-07-26T09:56:50.315Z,2.00
2022-07-26T09:59:19.692Z,5.00
2022-07-26T10:01:53.596Z,2.17
2022-07-26T10:04:21.522Z,3.25
2022-07-26T10:06:48.716Z,2.75
2022-07-26T10:09:18.882Z,3.05
2022-07-26T10:12:02.597Z,3.13
2022-07-26T10:14:37.776Z,3.35
2022-07-26T10:17:31.470Z,1.75
2022-07-26T10:20:01.815Z,3.70
2022-07-26T10:22:33.939Z,2.30
2022-07-26T10:25:19.125Z,2.85
2022-07-26T10:27:53.689Z,1.90
2022-07-26T10:30:20.432Z,2.85
2022-07-26T10:33:07.623Z,2.45
2022-07-26T10:35:34.166Z,5.60
2022-07-26T10:38:03.981Z,11.18
2022-07-26T10:40:31.091Z,2.53
2022-07-26T10:43:39.144Z,2.85
2022-07-26T10:46:16.489Z,1.73
2022-07-26T10:49:00.285Z,7.05
2022-07-26T10:51:32.509Z,7.00
2022-07-26T10:54:10.527Z,4.40
2022-07-26T10:56:38.364Z,5.15
2022-07-26T10:59:06.462Z,4.15
2022-07-26T11:01:33.999Z,4.18
2022-07-26T11:04:00.882Z,3.03
2022-07-26T11:06:30.473Z,3.83
2022-07-26T11:08:57.141Z,1.90
2022-07-26T11:11:32.544Z,4.68
2022-07-26T11:14:10.403Z,2.55
2022-07-26T11:16:41.830Z,3.92
2022-07-26T11:19:23.281Z,3.47
2022-07-26T11:21:59.120Z,3.08
2022-07-26T11:24:26.880Z,4.80
2022-07-26T11:26:54.045Z,2.80
2022-07-26T11:29:40.516Z,4.15
2022-07-26T11:32:18.556Z,3.42
2022-07-26T11:34:46.461Z,2.17
2022-07-26T11:37:13.789Z,4.00
2022-07-26T11:39:43.119Z,3.00
2022-07-26T11:42:19.616Z,2.63
2022-07-26T11:44:53.956Z,2.55
2022-07-26T11:47:24.507Z,2.08
2022-07-26T11:50:12.381Z,4.93
2022-07-26T11:52:39.117Z,3.22
2022-07-26T11:55:06.847Z,1.85
2022-07-26T11:57:33.476Z,6.82
2022-07-26T12:00:01.227Z,5.43
2022-07-26T12:02:31.821Z,2.80
2022-07-26T12:05:21.943Z,4.05
2022-07-26T12:08:04.140Z,2.38
2022-07-26T12:10:33.218Z,4.45
2022-07-26T12:13:08.035Z,3.42
2022-07-26T12:15:47.158Z,3.28
2022-07-26T12:18:30.819Z,2.13
2022-07-26T12:21:07.699Z,3.53
2022-07-26T12:23:49.327Z,1.85
2022-07-26T12:26:28.342Z,3.70
2022-07-26T12:28:56.061Z,4.32
2022-07-26T12:31:27.415Z,3.08
2022-07-26T12:33:54.185Z,2.90
2022-07-26T12:36:27.506Z,6.93
2022-07-26T12:39:00.207Z,4.45
2022-07-26T12:41:40.250Z,3.20
2022-07-26T12:44:11.879Z,4.20
2022-07-26T12:46:39.245Z,5.07
2022-07-26T12:49:06.131Z,2.10
2022-07-26T12:51:35.621Z,3.00
2022-07-26T12:54:03.461Z,3.95
2022-07-26T12:56:29.994Z,2.45
2022-07-26T12:59:01.374Z,6.57
2022-07-26T13:01:29.519Z,4.15
2022-07-26T13:03:56.437Z,3.33
2022-07-26T13:06:23.091Z,2.80
2022-07-26T13:08:50.179Z,4.75
2022-07-26T13:11:16.873Z,3.22
2022-07-26T13:13:46.014Z,4.45
2022-07-26T13:16:14.796Z,5.70
2022-07-26T13:18:41.370Z,4.65
2022-07-26T13:21:08.034Z,6.00
2022-07-26T13:23:35.666Z,3.83
2022-07-26T13:26:03.595Z,2.90
2022-07-26T13:28:30.873Z,4.30
2022-07-26T13:30:57.619Z,3.17
2022-07-26T13:33:24.313Z,2.47
2022-07-26T13:35:50.864Z,3.67
2022-07-26T13:38:19.673Z,6.47
2022-07-26T13:40:46.284Z,7.32
2022-07-26T13:43:12.847Z,5.00
2022-07-26T13:45:39.437Z,5.05
2022-07-26T13:48:08.612Z,4.82
2022-07-26T13:50:38.223Z,5.10
2022-07-26T13:53:04.828Z,6.75
2022-07-26T13:55:31.446Z,4.22
2022-07-26T13:58:00.256Z,6.07
2022-07-26T14:00:29.273Z,7.65
2022-07-26T14:02:59.073Z,5.18
2022-07-26T14:05:28.745Z,4.93
2022-07-26T14:07:55.649Z,4.40
2022-07-26T14:10:25.706Z,7.10
2022-07-26T14:12:52.610Z,6.72
2022-07-26T14:15:22.543Z,4.90
2022-07-26T14:17:51.417Z,6.43
2022-07-26T14:20:18.268Z,4.47
2022-07-26T14:22:45.366Z,5.65
2022-07-26T14:25:14.944Z,5.28
2022-07-26T14:27:41.520Z,9.38
2022-07-26T14:30:08.423Z,6.53
2022-07-26T14:32:35.251Z,7.22
2022-07-26T14:35:02.014Z,5.07
2022-07-26T14:37:44.121Z,4.93
2022-07-26T14:40:13.833Z,5.88
2022-07-26T14:42:40.711Z,6.38
2022-07-26T14:45:10.374Z,5.18
2022-07-26T14:47:40.198Z,6.22
2022-07-26T14:50:08.397Z,4.13
2022-07-26T14:52:40.997Z,7.97
2022-07-26T14:55:08.871Z,7.82
2022-07-26T14:57:39.507Z,7.32
2022-07-26T15:00:09.112Z,5.88
2022-07-26T15:02:37.743Z,8.48
2022-07-26T15:05:04.623Z,5.18
2022-07-26T15:07:33.430Z,6.78
2022-07-26T15:09:59.976Z,7.05
2022-07-26T15:12:26.623Z,6.45
2022-07-26T15:14:53.219Z,5.60
2022-07-26T15:17:20.415Z,6.53
2022-07-26T15:19:47.255Z,11.05
2022-07-26T15:22:17.410Z,9.65
2022-07-26T15:24:46.428Z,8.00
2022-07-26T15:27:13.189Z,6.07
2022-07-26T15:29:40.165Z,7.90
2022-07-26T15:32:09.080Z,5.78
2022-07-26T15:34:38.060Z,4.70
2022-07-26T15:37:04.609Z,9.68
2022-07-26T15:39:31.260Z,14.30
2022-07-26T15:42:05.398Z,6.32
2022-07-26T15:44:34.299Z,10.73
2022-07-26T15:47:00.847Z,39.35
2022-07-26T15:49:27.503Z,7.05
2022-07-26T15:51:54.222Z,11.52
2022-07-26T15:54:20.860Z,16.25
2022-07-26T15:56:47.573Z,8.85
2022-07-26T15:59:14.186Z,7.45
2022-07-26T16:01:43.074Z,7.13
2022-07-26T16:04:10.113Z,6.57
2022-07-26T16:06:37.040Z,7.05
2022-07-26T16:09:17.883Z,7.40
2022-07-26T16:11:45.542Z,9.57
2022-07-26T16:14:12.598Z,5.05
2022-07-26T16:16:39.236Z,11.63
2022-07-26T16:19:05.878Z,10.10
2022-07-26T16:21:32.601Z,6.43
2022-07-26T16:24:04.449Z,5.85
2022-07-26T16:26:33.596Z,6.38
2022-07-26T16:29:00.820Z,7.93
2022-07-26T16:31:27.716Z,7.82
2022-07-26T16:33:59.149Z,8.38
2022-07-26T16:36:25.796Z,6.07
2022-07-26T16:38:52.377Z,12.32
2022-07-26T16:41:19.234Z,4.93
2022-07-26T16:43:48.175Z,7.32
2022-07-26T16:46:17.580Z,4.30
2022-07-26T16:48:44.400Z,4.68
2022-07-26T16:51:13.465Z,4.15
2022-07-26T16:53:41.373Z,5.53
2022-07-26T16:56:08.029Z,7.93
2022-07-26T16:58:35.958Z,9.10
2022-07-26T17:01:02.808Z,6.72
2022-07-26T17:03:29.534Z,8.25
2022-07-26T17:05:56.075Z,6.88
2022-07-26T17:08:22.995Z,5.93
2022-07-26T17:10:49.573Z,6.20
2022-07-26T17:13:19.381Z,5.82
2022-07-26T17:15:47.751Z,4.95
2022-07-26T17:18:14.438Z,5.35
2022-07-26T17:20:42.144Z,3.95
2022-07-26T17:23:11.268Z,5.68
2022-07-26T17:25:37.910Z,4.47
2022-07-26T17:28:04.798Z,4.40
2022-07-26T17:30:31.446Z,5.95
2022-07-26T17:32:58.031Z,11.70
2022-07-26T17:35:24.767Z,6.25
2022-07-26T17:37:55.617Z,6.50
2022-07-26T17:40:23.560Z,5.43
2022-07-26T17:42:52.684Z,8.50
2022-07-26T17:45:19.383Z,8.75
2022-07-26T17:47:46.828Z,7.43
2022-07-26T17:50:35.136Z,8.07
2022-07-26T17:53:00.087Z,5.32
2022-07-26T17:55:29.227Z,5.50
2022-07-26T17:57:55.804Z,8.70
2022-07-26T18:00:23.224Z,5.53
2022-07-26T18:02:58.257Z,6.40
2022-07-26T18:05:32.248Z,2.90
2022-07-26T18:08:00.817Z,7.47
2022-07-26T18:10:28.331Z,5.75
2022-07-26T18:12:55.562Z,3.38
2022-07-26T18:15:22.472Z,7.90
2022-07-26T18:17:49.073Z,2.75
2022-07-26T18:20:15.809Z,7.00
2022-07-26T18:22:42.355Z,5.47
2022-07-26T18:25:12.714Z,4.18
2022-07-26T18:27:39.299Z,5.03
2022-07-26T18:30:08.854Z,6.28
2022-07-26T18:32:35.613Z,5.28
2022-07-26T18:35:02.354Z,4.53
2022-07-26T18:37:28.936Z,6.00
2022-07-26T18:39:57.855Z,4.63
2022-07-26T18:42:25.092Z,4.35
2022-07-26T18:44:51.877Z,7.00
2022-07-26T18:47:20.748Z,10.05
2022-07-26T18:49:47.327Z,7.63
2022-07-26T18:52:14.046Z,8.15
2022-07-26T18:54:41.475Z,7.85
2022-07-26T18:57:08.080Z,9.20
2022-07-26T18:59:34.652Z,8.05
2022-07-26T19:02:03.640Z,8.60
2022-07-26T19:04:30.441Z,5.75
2022-07-26T19:06:59.716Z,5.15
2022-07-26T19:09:26.335Z,4.28
2022-07-26T19:11:52.938Z,9.88
2022-07-26T19:14:19.534Z,6.57
2022-07-26T19:16:46.155Z,5.05
2022-07-26T19:19:13.151Z,8.35
2022-07-26T19:21:44.869Z,7.65
2022-07-26T19:24:11.419Z,9.80
2022-07-26T19:26:38.127Z,4.40
2022-07-26T19:29:04.737Z,5.88
2022-07-26T19:31:32.052Z,6.15
2022-07-26T19:33:58.648Z,8.35
2022-07-26T19:36:28.409Z,5.30
2022-07-26T19:38:56.715Z,4.20
2022-07-26T19:41:23.425Z,6.43
2022-07-26T19:43:49.953Z,5.75
2022-07-26T19:46:16.615Z,8.20
2022-07-26T19:48:45.654Z,6.22
2022-07-26T19:51:14.797Z,8.63
2022-07-26T19:53:41.614Z,5.57
2022-07-26T19:56:08.198Z,3.25
2022-07-26T19:58:39.989Z,6.25
2022-07-26T20:01:06.621Z,5.57
2022-07-26T20:03:33.329Z,8.93
2022-07-26T20:06:01.137Z,10.75
2022-07-26T20:08:27.748Z,7.70
2022-07-26T20:10:56.698Z,5.93
2022-07-26T20:13:23.325Z,9.05
2022-07-26T20:15:50.005Z,7.47
2022-07-26T20:18:19.577Z,5.95
2022-07-26T20:20:48.529Z,6.60
2022-07-26T20:23:15.081Z,6.47
2022-07-26T20:25:41.680Z,5.97
2022-07-26T20:28:08.242Z,7.05
2022-07-26T20:30:34.887Z,4.70
2022-07-26T20:33:03.777Z,4.55
2022-07-26T20:35:31.368Z,6.43
2022-07-26T20:37:57.943Z,9.73
2022-07-26T20:40:27.350Z,4.72
2022-07-26T20:42:53.948Z,5.72
2022-07-26T20:45:25.207Z,6.78
2022-07-26T20:47:53.393Z,5.15
2022-07-26T20:50:20.681Z,9.88
2022-07-26T20:52:48.632Z,8.30
2022-07-26T20:55:17.953Z,8.35
2022-07-26T20:57:45.756Z,5.88
2022-07-26T21:00:14.289Z,4.35
2022-07-26T21:02:41.005Z,4.60
2022-07-26T21:05:08.088Z,4.82
2022-07-26T21:07:58.562Z,3.42
2022-07-26T21:10:21.718Z,3.65
2022-07-26T21:12:49.653Z,5.85
2022-07-26T21:15:16.267Z,3.80
2022-07-26T21:17:45.153Z,5.82
2022-07-26T21:20:11.773Z,3.47
2022-07-26T21:22:38.311Z,5.45
2022-07-26T21:25:05.976Z,5.50
2022-07-26T21:27:32.581Z,5.90
2022-07-26T21:29:59.631Z,7.82
2022-07-26T21:32:31.553Z,3.80
2022-07-26T21:35:01.211Z,5.53
2022-07-26T21:37:27.934Z,4.72
2022-07-26T21:39:54.513Z,10.35
2022-07-26T21:42:21.356Z,3.83
2022-07-26T21:44:55.821Z,5.72
2022-07-26T21:47:25.017Z,4.80
2022-07-26T21:49:53.692Z,5.57
2022-07-26T21:52:20.253Z,4.25
2022-07-26T21:54:47.081Z,4.35
2022-07-26T21:57:16.641Z,3.03
2022-07-26T21:59:43.272Z,6.43
2022-07-26T22:02:14.478Z,3.90
2022-07-26T22:04:46.554Z,4.20
2022-07-26T22:07:13.276Z,4.18
2022-07-26T22:09:39.972Z,7.80
2022-07-26T22:12:06.835Z,6.75
2022-07-26T22:14:33.438Z,3.60
2022-07-26T22:17:00.135Z,3.88
2022-07-26T22:19:26.894Z,4.03
2022-07-26T22:21:53.597Z,4.70
2022-07-26T22:24:22.299Z,5.63
2022-07-26T22:26:48.934Z,6.18
2022-07-26T22:29:17.575Z,4.05
2022-07-26T22:31:44.261Z,3.67
2022-07-26T22:34:10.838Z,3.83
2022-07-26T22:36:40.010Z,3.35
2022-07-26T22:39:12.114Z,4.55
2022-07-26T22:42:05.057Z,2.90
2022-07-26T22:44:27.596Z,3.35
2022-07-26T22:46:54.646Z,2.72
2022-07-26T22:49:21.692Z,5.68
2022-07-26T22:51:50.353Z,2.40
2022-07-26T22:54:19.139Z,2.20
2022-07-26T22:56:46.612Z,2.97
2022-07-26T22:59:13.719Z,3.58
2022-07-26T23:01:40.679Z,4.45
2022-07-26T23:04:07.328Z,3.15
2022-07-26T23:06:37.446Z,4.65
2022-07-26T23:09:04.941Z,5.20
2022-07-26T23:11:32.790Z,3.75
2022-07-26T23:14:01.850Z,2.63
2022-07-26T23:16:31.095Z,5.13
2022-07-26T23:18:57.724Z,4.43
2022-07-26T23:21:24.323Z,1.55
2022-07-26T23:23:50.922Z,5.22
2022-07-26T23:26:17.680Z,5.65
2022-07-26T23:28:44.257Z,3.28
2022-07-26T23:31:11.918Z,4.10
2022-07-26T23:33:51.509Z,5.60
2022-07-26T23:36:20.453Z,5.43
2022-07-26T23:38:49.485Z,4.70
2022-07-26T23:41:16.082Z,5.47
2022-07-26T23:43:42.823Z,3.70
2022-07-26T23:46:09.392Z,2.03
2022-07-26T23:48:36.010Z,3.47
2022-07-26T23:51:02.582Z,3.30
2022-07-26T23:53:29.171Z,4.55
2022-07-26T23:55:55.789Z,1.90
2022-07-26T23:58:22.335Z,3.70
